createdAt,value
2023-05-17T00:02:02.320Z,47.00
2023-05-17T00:04:29.272Z,47.10
2023-05-17T00:06:56.175Z,47.50
2023-05-17T00:09:22.944Z,47.40
2023-05-17T00:11:49.764Z,47.50
2023-05-17T00:14:16.745Z,47.60
2023-05-17T00:16:43.638Z,47.80
2023-05-17T00:19:10.621Z,48.10
2023-05-17T00:21:38.131Z,48.00
2023-05-17T00:24:05.328Z,48.10
2023-05-17T00:26:33.701Z,48.20
2023-05-17T00:29:00.798Z,48.30
2023-05-17T00:31:27.703Z,48.10
2023-05-17T00:33:54.536Z,48.20
2023-05-17T00:36:21.636Z,48.50
2023-05-17T00:38:48.532Z,49.10
2023-05-17T00:41:15.581Z,48.60
2023-05-17T00:43:42.493Z,48.70
2023-05-17T00:46:09.826Z,48.80
2023-05-17T00:48:36.977Z,48.90
2023-05-17T00:51:04.043Z,49.00
2023-05-17T00:53:31.005Z,48.90
2023-05-17T00:55:57.921Z,49.00
2023-05-17T00:58:25.180Z,49.10
2023-05-17T01:00:52.342Z,49.20
2023-05-17T01:03:19.358Z,49.00
2023-05-17T01:05:46.175Z,49.00
2023-05-17T01:08:13.077Z,49.10
2023-05-17T01:11:05.014Z,49.20
2023-05-17T01:13:42.717Z,49.70
2023-05-17T01:16:31.213Z,49.60
2023-05-17T01:19:19.929Z,49.70
2023-05-17T01:21:52.924Z,49.50
2023-05-17T01:24:33.331Z,49.60
2023-05-17T01:27:04.962Z,49.60
2023-05-17T01:29:33.202Z,49.40
2023-05-17T01:32:02.132Z,49.40
2023-05-17T01:34:30.040Z,49.50
2023-05-17T01:36:58.136Z,49.70
2023-05-17T01:39:25.439Z,49.70
2023-05-17T01:42:22.795Z,49.60
2023-05-17T01:45:06.147Z,49.20
2023-05-17T01:47:38.901Z,50.20
2023-05-17T01:50:07.763Z,49.90
2023-05-17T01:52:44.537Z,49.80
2023-05-17T01:55:19.892Z,50.00
2023-05-17T01:57:51.556Z,50.40
2023-05-17T02:00:19.636Z,50.10
2023-05-17T02:02:46.704Z,50.40
2023-05-17T02:05:13.756Z,50.30
2023-05-17T02:07:40.841Z,50.20
2023-05-17T02:10:08.430Z,50.20
2023-05-17T02:12:36.663Z,50.40
2023-05-17T02:15:03.994Z,50.40
2023-05-17T02:17:31.105Z,50.40
2023-05-17T02:19:58.030Z,50.50
2023-05-17T02:22:24.853Z,50.60
2023-05-17T02:24:51.640Z,50.60
2023-05-17T02:27:18.793Z,50.50
2023-05-17T02:29:45.742Z,50.50
2023-05-17T02:32:12.677Z,50.60
2023-05-17T02:34:39.604Z,50.70
2023-05-17T02:37:06.612Z,51.00
2023-05-17T02:39:33.934Z,49.00
2023-05-17T02:42:00.745Z,50.70
2023-05-17T02:44:27.599Z,50.70
2023-05-17T02:46:54.412Z,51.00
2023-05-17T02:49:21.234Z,51.20
2023-05-17T02:51:48.032Z,51.10
2023-05-17T02:54:14.914Z,51.10
2023-05-17T02:56:41.764Z,51.10
2023-05-17T02:59:08.659Z,51.10
2023-05-17T03:01:36.668Z,51.40
2023-05-17T03:04:04.368Z,51.80
2023-05-17T03:06:31.481Z,51.60
2023-05-17T03:08:58.704Z,51.70
2023-05-17T03:11:25.630Z,51.70
2023-05-17T03:13:54.385Z,51.70
2023-05-17T03:16:26.524Z,51.90
2023-05-17T03:18:53.464Z,51.70
2023-05-17T03:21:20.507Z,51.70
2023-05-17T03:26:16.347Z,51.20
2023-05-17T03:28:48.310Z,51.90
2023-05-17T03:31:17.522Z,51.80
2023-05-17T03:33:45.790Z,51.90
2023-05-17T03:36:13.432Z,51.90
2023-05-17T03:38:40.618Z,52.00
2023-05-17T03:41:07.750Z,52.00
2023-05-17T03:43:34.675Z,52.10
2023-05-17T03:46:01.848Z,52.00
2023-05-17T03:48:29.665Z,52.10
2023-05-17T03:50:56.600Z,52.20
2023-05-17T03:53:23.375Z,52.30
2023-05-17T03:55:50.215Z,52.40
2023-05-17T03:58:18.328Z,52.70
2023-05-17T04:00:45.486Z,52.60
2023-05-17T04:03:18.569Z,52.60
2023-05-17T04:05:46.813Z,52.60
2023-05-17T04:08:13.969Z,52.50
2023-05-17T04:10:42.212Z,52.70
2023-05-17T04:13:09.629Z,53.00
2023-05-17T04:15:37.656Z,53.20
2023-05-17T04:18:05.898Z,53.10
2023-05-17T04:20:32.827Z,53.20
2023-05-17T04:23:00.104Z,53.20
2023-05-17T04:25:29.881Z,53.40
2023-05-17T04:27:56.997Z,53.30
2023-05-17T04:30:24.252Z,53.50
2023-05-17T04:32:51.280Z,53.50
2023-05-17T04:35:18.113Z,53.80
2023-05-17T04:37:48.548Z,53.80
2023-05-17T04:40:21.262Z,53.60
2023-05-17T04:42:48.844Z,54.00
2023-05-17T04:45:17.672Z,54.20
2023-05-17T04:47:44.686Z,54.30
2023-05-17T04:50:12.510Z,54.20
2023-05-17T04:52:39.619Z,54.40
2023-05-17T04:55:07.787Z,54.50
2023-05-17T04:57:35.879Z,54.50
2023-05-17T05:00:26.531Z,54.60
2023-05-17T05:02:59.952Z,54.70
2023-05-17T05:05:27.045Z,54.70
2023-05-17T05:07:54.547Z,54.90
2023-05-17T05:10:21.762Z,54.90
2023-05-17T05:12:48.852Z,55.10
2023-05-17T05:15:16.247Z,55.20
2023-05-17T05:17:49.788Z,55.20
2023-05-17T05:20:16.891Z,55.20
2023-05-17T05:22:43.778Z,55.30
2023-05-17T05:25:11.414Z,55.40
2023-05-17T05:27:38.364Z,55.40
2023-05-17T05:30:05.931Z,55.60
2023-05-17T05:32:33.101Z,55.70
2023-05-17T05:34:59.985Z,55.90
2023-05-17T05:37:27.025Z,56.50
2023-05-17T05:39:54.041Z,57.20
2023-05-17T05:42:20.977Z,56.00
2023-05-17T05:44:47.913Z,56.00
2023-05-17T05:47:16.900Z,55.90
2023-05-17T05:49:43.767Z,55.80
2023-05-17T05:52:12.642Z,55.80
2023-05-17T05:54:40.743Z,55.80
2023-05-17T05:57:07.675Z,55.80
2023-05-17T05:59:35.382Z,56.20
2023-05-17T06:02:02.416Z,55.70
2023-05-17T06:04:40.659Z,55.60
2023-05-17T06:07:12.103Z,55.60
2023-05-17T06:09:38.908Z,55.80
2023-05-17T06:12:05.848Z,54.00
2023-05-17T06:14:32.758Z,55.80
2023-05-17T06:16:59.797Z,55.70
2023-05-17T06:19:26.738Z,55.70
2023-05-17T06:21:53.973Z,55.50
2023-05-17T06:24:20.822Z,55.50
2023-05-17T06:26:48.525Z,55.50
2023-05-17T06:29:15.600Z,55.60
2023-05-17T06:31:42.619Z,55.70
2023-05-17T06:34:09.521Z,55.60
2023-05-17T06:36:37.638Z,55.50
2023-05-17T06:39:05.648Z,55.30
2023-05-17T06:41:32.629Z,55.10
2023-05-17T06:43:59.555Z,55.20
2023-05-17T06:46:26.472Z,55.40
2023-05-17T06:48:53.470Z,55.20
2023-05-17T06:51:20.497Z,55.20
2023-05-17T06:53:47.537Z,55.00
2023-05-17T06:56:14.807Z,54.90
2023-05-17T06:58:41.777Z,55.10
2023-05-17T07:01:08.671Z,55.00
2023-05-17T07:03:35.865Z,55.00
2023-05-17T07:06:03.273Z,55.00
2023-05-17T07:08:30.260Z,54.90
2023-05-17T07:10:59.742Z,55.00
2023-05-17T07:13:26.575Z,54.90
2023-05-17T07:15:53.449Z,54.90
2023-05-17T07:18:20.628Z,54.80
2023-05-17T07:20:47.609Z,54.40
2023-05-17T07:23:14.553Z,54.10
2023-05-17T07:25:43.136Z,53.90
2023-05-17T07:28:10.041Z,54.00
2023-05-17T07:30:36.840Z,54.10
2023-05-17T07:33:03.800Z,54.90
2023-05-17T07:35:31.179Z,54.70
2023-05-17T07:38:00.398Z,53.90
2023-05-17T07:40:27.343Z,54.00
2023-05-17T07:42:54.264Z,53.90
2023-05-17T07:45:21.327Z,53.80
2023-05-17T07:47:48.366Z,53.70
2023-05-17T07:50:15.346Z,53.80
2023-05-17T07:52:42.186Z,53.60
2023-05-17T07:55:09.617Z,53.60
2023-05-17T07:57:38.491Z,53.70
2023-05-17T08:00:08.842Z,53.80
2023-05-17T08:02:39.683Z,53.70
2023-05-17T08:05:08.432Z,53.50
2023-05-17T08:07:35.436Z,53.40
2023-05-17T08:10:02.740Z,53.40
2023-05-17T08:12:29.576Z,53.60
2023-05-17T08:14:56.464Z,53.40
2023-05-17T08:17:23.534Z,53.10
2023-05-17T08:19:50.555Z,53.00
2023-05-17T08:22:17.464Z,52.80
2023-05-17T08:24:45.321Z,52.60
2023-05-17T08:27:12.196Z,52.40
2023-05-17T08:29:39.879Z,52.50
2023-05-17T08:32:07.159Z,52.40
2023-05-17T08:34:36.691Z,52.40
2023-05-17T08:37:03.778Z,52.30
2023-05-17T08:39:31.538Z,51.90
2023-05-17T08:41:59.732Z,51.90
2023-05-17T08:44:30.751Z,51.40
2023-05-17T08:46:59.127Z,51.30
2023-05-17T08:49:28.724Z,51.40
2023-05-17T08:51:59.323Z,51.40
2023-05-17T08:54:26.687Z,51.30
2023-05-17T08:56:58.576Z,51.20
2023-05-17T08:59:27.426Z,50.90
2023-05-17T09:01:54.887Z,50.60
2023-05-17T09:04:22.362Z,50.70
2023-05-17T09:06:50.652Z,50.40
2023-05-17T09:09:18.805Z,50.20
2023-05-17T09:11:45.698Z,50.40
2023-05-17T09:14:12.541Z,50.00
2023-05-17T09:16:39.357Z,50.00
2023-05-17T09:19:08.594Z,50.00
2023-05-17T09:21:36.861Z,49.40
2023-05-17T09:24:07.687Z,49.30
2023-05-17T09:26:41.909Z,49.30
2023-05-17T09:29:16.564Z,49.10
2023-05-17T09:31:44.662Z,49.10
2023-05-17T09:34:13.123Z,49.10
2023-05-17T09:36:43.942Z,48.90
2023-05-17T09:39:13.160Z,49.10
2023-05-17T09:41:47.914Z,49.00
2023-05-17T09:44:16.547Z,49.00
2023-05-17T09:46:48.707Z,49.30
2023-05-17T09:49:17.442Z,49.20
2023-05-17T09:51:46.981Z,49.20
2023-05-17T09:54:14.096Z,49.00
2023-05-17T09:56:41.148Z,48.90
2023-05-17T09:59:13.790Z,48.70
2023-05-17T10:01:42.050Z,48.40
2023-05-17T10:04:10.570Z,48.60
2023-05-17T10:06:48.146Z,48.80
2023-05-17T10:09:21.097Z,48.80
2023-05-17T10:11:48.620Z,49.20
2023-05-17T10:14:28.629Z,48.90
2023-05-17T10:16:56.379Z,48.60
2023-05-17T10:19:24.747Z,48.60
2023-05-17T10:21:53.875Z,48.90
2023-05-17T10:24:21.852Z,48.90
2023-05-17T10:26:52.044Z,48.40
2023-05-17T10:29:21.217Z,48.00
2023-05-17T10:31:51.227Z,47.10
2023-05-17T10:34:19.729Z,46.80
2023-05-17T10:36:48.918Z,46.80
2023-05-17T10:39:16.738Z,46.80
2023-05-17T10:41:45.891Z,47.10
2023-05-17T10:44:14.947Z,46.80
2023-05-17T10:46:52.541Z,46.50
2023-05-17T10:49:24.148Z,46.30
2023-05-17T10:51:51.748Z,46.50
2023-05-17T10:54:18.827Z,46.20
2023-05-17T10:56:53.715Z,46.20
2023-05-17T10:59:28.057Z,46.30
2023-05-17T11:02:06.187Z,46.70
2023-05-17T11:04:36.432Z,46.80
2023-05-17T11:07:28.047Z,46.90
2023-05-17T11:10:05.894Z,46.80
2023-05-17T11:12:40.864Z,47.20
2023-05-17T11:15:09.132Z,47.00
2023-05-17T11:17:37.698Z,46.90
2023-05-17T11:20:08.007Z,46.60
2023-05-17T11:23:14.926Z,46.60
2023-05-17T11:25:41.900Z,46.30
2023-05-17T11:28:22.239Z,46.40
2023-05-17T11:30:53.590Z,46.20
2023-05-17T11:33:32.759Z,45.90
2023-05-17T11:36:15.694Z,45.70
2023-05-17T11:38:42.588Z,45.40
2023-05-17T11:43:52.161Z,44.70
2023-05-17T11:46:21.089Z,44.90
2023-05-17T11:48:50.288Z,44.90
2023-05-17T11:51:17.949Z,45.20
2023-05-17T11:53:47.161Z,45.50
2023-05-17T11:56:15.119Z,45.40
2023-05-17T11:58:43.357Z,45.00
2023-05-17T12:01:10.657Z,45.00
2023-05-17T12:03:37.573Z,45.40
2023-05-17T12:06:09.451Z,45.40
2023-05-17T12:08:39.265Z,45.10
2023-05-17T12:11:07.589Z,45.20
2023-05-17T12:13:35.747Z,45.10
2023-05-17T12:16:11.271Z,45.10
2023-05-17T12:18:40.489Z,45.10
2023-05-17T12:21:09.132Z,45.10
2023-05-17T12:23:41.595Z,45.00
2023-05-17T12:26:16.142Z,44.70
2023-05-17T12:28:43.725Z,44.70
2023-05-17T12:31:17.951Z,44.90
2023-05-17T12:33:48.219Z,44.40
2023-05-17T12:36:16.881Z,44.20
2023-05-17T12:38:47.168Z,44.40
2023-05-17T12:41:16.505Z,44.40
2023-05-17T12:43:45.506Z,44.00
2023-05-17T12:46:14.345Z,44.20
2023-05-17T12:48:43.006Z,44.50
2023-05-17T12:51:12.679Z,44.50
2023-05-17T12:53:41.702Z,44.50
2023-05-17T12:56:14.366Z,44.60
2023-05-17T12:58:41.691Z,44.30
2023-05-17T13:01:10.766Z,44.30
2023-05-17T13:03:38.120Z,44.10
2023-05-17T13:06:07.885Z,44.00
2023-05-17T13:08:34.856Z,44.00
2023-05-17T13:11:10.127Z,44.00
2023-05-17T13:13:37.277Z,43.80
2023-05-17T13:16:04.308Z,43.90
2023-05-17T13:18:35.426Z,43.70
2023-05-17T13:21:02.927Z,43.80
2023-05-17T13:23:29.850Z,43.10
2023-05-17T13:25:56.670Z,42.90
2023-05-17T13:28:24.807Z,42.70
2023-05-17T13:30:52.550Z,42.00
2023-05-17T13:33:19.716Z,41.70
2023-05-17T13:35:47.633Z,41.70
2023-05-17T13:38:14.455Z,41.70
2023-05-17T13:40:41.349Z,41.60
2023-05-17T13:43:09.997Z,41.60
2023-05-17T13:45:36.945Z,41.60
2023-05-17T13:48:04.001Z,41.70
2023-05-17T13:50:31.303Z,41.50
2023-05-17T13:52:58.739Z,41.40
2023-05-17T13:55:25.742Z,41.30
2023-05-17T13:57:52.941Z,41.10
2023-05-17T14:00:20.531Z,40.40
2023-05-17T14:02:47.706Z,40.00
2023-05-17T14:05:15.440Z,39.90
2023-05-17T14:07:43.509Z,39.90
2023-05-17T14:10:12.618Z,40.00
2023-05-17T14:12:40.416Z,40.10
2023-05-17T14:15:09.003Z,40.00
2023-05-17T14:17:35.953Z,39.60
2023-05-17T14:20:04.196Z,39.40
2023-05-17T14:22:31.190Z,38.90
2023-05-17T14:24:58.072Z,38.70
2023-05-17T14:27:24.976Z,38.10
2023-05-17T14:29:51.958Z,37.60
2023-05-17T14:32:18.970Z,37.20
2023-05-17T14:34:46.002Z,37.00
2023-05-17T14:37:14.826Z,37.20
2023-05-17T14:39:42.624Z,36.70
2023-05-17T14:42:10.674Z,36.40
2023-05-17T14:44:39.680Z,36.00
2023-05-17T14:47:10.102Z,36.20
2023-05-17T14:49:36.919Z,36.00
2023-05-17T14:52:03.895Z,36.20
2023-05-17T14:54:32.867Z,36.20
2023-05-17T14:57:00.618Z,35.80
2023-05-17T14:59:27.623Z,35.10
2023-05-17T15:01:54.400Z,34.70
2023-05-17T15:04:21.612Z,34.50
2023-05-17T15:06:48.641Z,34.40
2023-05-17T15:09:18.289Z,34.20
2023-05-17T15:11:45.442Z,33.90
2023-05-17T15:14:12.511Z,33.80
2023-05-17T15:16:40.044Z,33.60
2023-05-17T15:19:08.023Z,33.50
2023-05-17T15:21:35.285Z,33.60
2023-05-17T15:24:02.600Z,33.50
2023-05-17T15:26:29.392Z,33.20
2023-05-17T15:28:56.200Z,32.90
2023-05-17T15:31:24.289Z,33.10
2023-05-17T15:33:51.714Z,32.80
2023-05-17T15:36:18.591Z,32.60
2023-05-17T15:38:45.487Z,32.60
2023-05-17T15:41:15.623Z,32.70
2023-05-17T15:43:42.639Z,32.50
2023-05-17T15:46:09.550Z,32.60
2023-05-17T15:48:36.687Z,32.60
2023-05-17T15:51:03.909Z,32.70
2023-05-17T15:53:31.330Z,32.20
2023-05-17T15:55:58.103Z,31.90
2023-05-17T15:58:27.846Z,31.70
2023-05-17T16:00:55.248Z,31.80
2023-05-17T16:03:22.087Z,31.80
2023-05-17T16:05:48.988Z,31.70
2023-05-17T16:08:16.480Z,31.50
2023-05-17T16:10:43.370Z,31.50
2023-05-17T16:13:10.159Z,31.60
2023-05-17T16:15:37.002Z,31.20
2023-05-17T16:18:03.940Z,31.30
2023-05-17T16:20:31.196Z,31.20
2023-05-17T16:22:58.054Z,30.90
2023-05-17T16:25:25.134Z,32.00
2023-05-17T16:27:51.981Z,30.30
2023-05-17T16:30:19.524Z,30.20
2023-05-17T16:32:47.925Z,30.00
2023-05-17T16:35:15.496Z,30.00
2023-05-17T16:37:43.467Z,29.80
2023-05-17T16:40:11.571Z,29.80
2023-05-17T16:42:38.626Z,29.70
2023-05-17T16:45:07.694Z,29.70
2023-05-17T16:47:34.921Z,29.70
2023-05-17T16:50:02.205Z,29.60
2023-05-17T16:52:30.265Z,29.40
2023-05-17T16:55:03.368Z,29.30
2023-05-17T16:57:31.826Z,29.30
2023-05-17T17:00:00.941Z,29.30
2023-05-17T17:02:28.405Z,29.20
2023-05-17T17:04:55.694Z,29.20
2023-05-17T17:07:22.505Z,29.00
2023-05-17T17:09:49.544Z,29.10
2023-05-17T17:12:24.132Z,29.00
2023-05-17T17:14:52.482Z,29.10
2023-05-17T17:17:19.275Z,29.20
2023-05-17T17:19:46.073Z,29.20
2023-05-17T17:22:14.723Z,29.10
2023-05-17T17:24:42.691Z,29.10
2023-05-17T17:27:09.504Z,29.00
2023-05-17T17:29:36.296Z,29.10
2023-05-17T17:32:03.160Z,29.10
2023-05-17T17:34:30.140Z,29.20
2023-05-17T17:36:57.911Z,29.20
2023-05-17T17:39:24.811Z,29.40
2023-05-17T17:41:51.636Z,29.40
2023-05-17T17:44:18.472Z,29.40
2023-05-17T17:46:45.493Z,28.80
2023-05-17T17:49:12.321Z,29.30
2023-05-17T17:51:39.121Z,29.30
2023-05-17T17:54:07.332Z,29.30
2023-05-17T17:56:34.280Z,29.20
2023-05-17T17:59:01.126Z,29.10
2023-05-17T18:01:29.552Z,29.10
2023-05-17T18:03:56.509Z,29.10
2023-05-17T18:06:23.900Z,29.10
2023-05-17T18:08:50.793Z,29.40
2023-05-17T18:11:17.756Z,29.50
2023-05-17T18:13:44.666Z,29.80
2023-05-17T18:16:11.542Z,29.80
2023-05-17T18:18:40.675Z,29.80
2023-05-17T18:21:08.852Z,29.70
2023-05-17T18:23:35.892Z,29.70
2023-05-17T18:26:03.219Z,29.90
2023-05-17T18:28:41.368Z,30.00
2023-05-17T18:31:09.572Z,30.60
2023-05-17T18:33:36.514Z,30.00
2023-05-17T18:36:03.617Z,29.90
2023-05-17T18:38:30.553Z,29.90
2023-05-17T18:40:57.404Z,30.10
2023-05-17T18:43:24.284Z,30.10
2023-05-17T18:45:51.414Z,30.20
2023-05-17T18:48:18.639Z,30.40
2023-05-17T18:50:45.720Z,30.40
2023-05-17T18:53:13.156Z,30.50
2023-05-17T18:55:41.229Z,30.60
2023-05-17T18:58:08.154Z,30.80
2023-05-17T19:00:35.353Z,31.00
2023-05-17T19:03:04.281Z,31.00
2023-05-17T19:05:31.383Z,31.00
2023-05-17T19:07:58.213Z,31.50
2023-05-17T19:10:25.087Z,31.40
2023-05-17T19:12:51.913Z,31.60
2023-05-17T19:15:19.537Z,31.70
2023-05-17T19:17:46.665Z,31.90
2023-05-17T19:20:13.674Z,32.20
2023-05-17T19:22:40.559Z,32.60
2023-05-17T19:25:08.016Z,32.70
2023-05-17T19:27:34.805Z,32.80
2023-05-17T19:30:01.666Z,32.90
2023-05-17T19:32:28.596Z,33.10
2023-05-17T19:34:55.448Z,33.40
2023-05-17T19:37:22.390Z,33.50
2023-05-17T19:39:49.242Z,33.70
2023-05-17T19:42:16.445Z,33.80
2023-05-17T19:44:43.280Z,34.00
2023-05-17T19:47:10.229Z,34.20
2023-05-17T19:49:37.183Z,34.30
2023-05-17T19:52:04.274Z,34.50
2023-05-17T19:54:31.271Z,34.70
2023-05-17T19:56:59.773Z,34.80
2023-05-17T19:59:26.620Z,35.00
2023-05-17T20:01:53.487Z,35.10
2023-05-17T20:04:20.560Z,35.20
2023-05-17T20:06:47.371Z,36.50
2023-05-17T20:09:14.251Z,35.70
2023-05-17T20:11:41.456Z,35.70
2023-05-17T20:14:09.649Z,36.00
2023-05-17T20:16:36.543Z,36.40
2023-05-17T20:19:03.606Z,36.30
2023-05-17T20:21:31.383Z,36.20
2023-05-17T20:24:03.465Z,36.40
2023-05-17T20:26:35.964Z,36.40
2023-05-17T20:29:07.702Z,36.70
2023-05-17T20:31:35.710Z,36.70
2023-05-17T20:34:03.344Z,36.70
2023-05-17T20:36:31.324Z,36.80
2023-05-17T20:38:58.366Z,37.00
2023-05-17T20:41:25.206Z,37.00
2023-05-17T20:43:52.545Z,37.10
2023-05-17T20:46:19.629Z,37.20
2023-05-17T20:48:48.061Z,37.30
2023-05-17T20:51:15.818Z,37.20
2023-05-17T20:53:42.764Z,37.30
2023-05-17T20:56:11.065Z,37.40
2023-05-17T20:58:38.050Z,37.40
2023-05-17T21:01:05.882Z,37.60
2023-05-17T21:03:35.633Z,37.70
2023-05-17T21:06:02.627Z,37.80
2023-05-17T21:08:29.607Z,37.80
2023-05-17T21:10:56.615Z,38.10
2023-05-17T21:13:25.788Z,38.40
2023-05-17T21:15:54.281Z,38.50
2023-05-17T21:18:21.366Z,38.70
2023-05-17T21:20:50.422Z,38.70
2023-05-17T21:23:17.801Z,38.70
2023-05-17T21:25:44.642Z,38.60
2023-05-17T21:28:11.542Z,38.60
2023-05-17T21:30:38.394Z,38.90
2023-05-17T21:33:05.709Z,38.90
2023-05-17T21:35:32.707Z,38.90
2023-05-17T21:37:59.516Z,38.90
2023-05-17T21:40:26.430Z,39.10
2023-05-17T21:42:53.320Z,39.30
2023-05-17T21:45:20.318Z,39.30
2023-05-17T21:47:47.234Z,39.20
2023-05-17T21:50:14.253Z,39.60
2023-05-17T21:52:41.055Z,39.70
2023-05-17T21:55:08.893Z,39.50
2023-05-17T21:57:36.632Z,39.60
2023-05-17T22:00:08.007Z,40.50
2023-05-17T22:02:35.900Z,39.80
2023-05-17T22:05:03.044Z,39.70
2023-05-17T22:07:30.011Z,39.70
2023-05-17T22:09:58.299Z,39.70
2023-05-17T22:12:26.212Z,39.80
2023-05-17T22:14:54.203Z,39.80
2023-05-17T22:17:29.510Z,40.10
2023-05-17T22:20:07.872Z,40.20
2023-05-17T22:22:34.668Z,40.30
2023-05-17T22:25:01.591Z,40.40
2023-05-17T22:27:28.470Z,40.50
2023-05-17T22:29:55.263Z,40.50
2023-05-17T22:32:22.819Z,40.50
2023-05-17T22:34:50.492Z,40.60
2023-05-17T22:37:17.661Z,40.60
2023-05-17T22:39:44.475Z,40.70
2023-05-17T22:42:11.306Z,40.80
2023-05-17T22:44:38.203Z,40.90
2023-05-17T22:47:05.774Z,40.90
2023-05-17T22:49:36.046Z,40.90
2023-05-17T22:52:07.818Z,41.10
2023-05-17T22:54:36.272Z,41.20
2023-05-17T22:57:04.389Z,41.00
2023-05-17T22:59:32.855Z,41.20
2023-05-17T23:02:00.263Z,41.30
2023-05-17T23:04:30.034Z,41.30
2023-05-17T23:07:03.833Z,41.50
2023-05-17T23:09:31.040Z,41.70
2023-05-17T23:12:00.344Z,41.70
2023-05-17T23:14:27.464Z,41.70
2023-05-17T23:16:54.416Z,41.80
2023-05-17T23:19:23.517Z,41.80
2023-05-17T23:21:50.649Z,42.00
2023-05-17T23:24:17.653Z,41.90
2023-05-17T23:26:44.468Z,42.00
2023-05-17T23:29:12.590Z,42.00
2023-05-17T23:31:41.055Z,42.20
2023-05-17T23:34:07.974Z,42.20
2023-05-17T23:36:34.813Z,42.30
2023-05-17T23:48:11.768Z,42.80
2023-05-17T23:50:39.436Z,43.00
2023-05-17T23:53:06.262Z,42.60
2023-05-17T23:55:33.453Z,42.70
2023-05-17T23:58:00.272Z,42.80
